Time;durP1;ratioP1;P1;durP2;ratioP2;P2;SDS_P1;SDS_P2;PMS_P1;PMS_P2;Temp;Humidity;BMP_temperature;BMP_pressure;BME280_temperature;BME280_humidity;BME280_pressure;Samples;Min_cycle;Max_cycle;Signal;HPM_P1;HPM_P2
2022/08/04 00:00:23;;;;;;;9.88;4.20;;;21.40;99.90;;;;;;5012048;28;20152;-66
2022/08/04 00:03:04;;;;;;;9.40;4.25;;;21.30;99.90;;;;;;5011057;28;20134;-64
2022/08/04 00:05:47;;;;;;;8.50;4.25;;;21.30;99.90;;;;;;5004877;28;20042;-64
2022/08/04 00:08:31;;;;;;;8.50;4.30;;;21.30;99.90;;;;;;5009963;28;20089;-64
2022/08/04 00:10:59;;;;;;;10.52;4.20;;;21.40;99.90;;;;;;5001618;28;20117;-64
2022/08/04 00:13:30;;;;;;;10.93;4.00;;;21.30;99.90;;;;;;5007897;28;20479;-64
2022/08/04 00:16:04;;;;;;;12.38;4.15;;;21.20;99.90;;;;;;5004477;28;20034;-66
2022/08/04 00:18:44;;;;;;;9.38;4.10;;;21.20;99.90;;;;;;4998692;28;20085;-64
2022/08/04 00:21:14;;;;;;;9.82;3.90;;;21.20;99.90;;;;;;5007956;28;20505;-64
2022/08/04 00:23:43;;;;;;;10.48;4.50;;;21.20;99.90;;;;;;5007707;28;20034;-64
2022/08/04 00:26:09;;;;;;;9.43;4.10;;;21.20;99.90;;;;;;5009370;28;20038;-65
2022/08/04 00:28:37;;;;;;;10.02;4.20;;;21.10;99.90;;;;;;5009628;28;20386;-64
2022/08/04 00:31:04;;;;;;;9.75;4.10;;;21.10;99.90;;;;;;5003433;28;20042;-65
2022/08/04 00:33:30;;;;;;;7.53;4.10;;;21.10;99.90;;;;;;5010856;28;20697;-64
2022/08/04 00:35:56;;;;;;;9.07;4.60;;;21.10;99.90;;;;;;5010818;28;20517;-65
2022/08/04 00:38:23;;;;;;;7.90;3.78;;;21.00;99.90;;;;;;5009575;28;20038;-67
2022/08/04 00:41:01;;;;;;;11.23;4.05;;;21.00;99.90;;;;;;5006007;28;20055;-64
2022/08/04 00:43:43;;;;;;;8.85;3.78;;;20.90;99.90;;;;;;5007783;28;20041;-67
2022/08/04 00:46:32;;;;;;;7.40;3.72;;;20.90;99.90;;;;;;5003665;28;20475;-64
2022/08/04 00:49:03;;;;;;;7.95;3.88;;;20.80;99.90;;;;;;5010057;28;20053;-64
2022/08/04 00:51:29;;;;;;;6.35;4.03;;;20.80;99.90;;;;;;5010766;28;20038;-65
2022/08/04 00:54:33;;;;;;;7.22;4.28;;;20.80;99.90;;;;;;5008865;28;20104;-65
2022/08/04 00:57:26;;;;;;;6.72;3.80;;;20.80;99.90;;;;;;5007356;28;20049;-64
2022/08/04 01:00:10;;;;;;;6.68;3.97;;;20.80;99.90;;;;;;4999089;28;20042;-64
2022/08/04 01:03:00;;;;;;;11.75;4.60;;;20.70;99.90;;;;;;5000000;28;20038;-64
2022/08/04 01:05:58;;;;;;;7.75;4.70;;;20.70;99.90;;;;;;5004682;28;20485;-64
2022/08/04 01:08:27;;;;;;;8.00;4.50;;;20.70;99.90;;;;;;4988694;28;20041;-65
2022/08/04 01:10:58;;;;;;;10.25;4.75;;;20.70;99.90;;;;;;5000272;28;20096;-64
2022/08/04 01:13:51;;;;;;;9.15;4.00;;;20.70;99.90;;;;;;5004046;28;20044;-65
2022/08/04 01:16:20;;;;;;;10.25;4.18;;;20.70;99.90;;;;;;5003048;28;20045;-64
2022/08/04 01:19:01;;;;;;;9.52;4.18;;;20.70;99.90;;;;;;4996974;28;20401;-66
2022/08/04 01:21:54;;;;;;;10.13;4.63;;;20.60;99.90;;;;;;5009180;28;20034;-64
2022/08/04 01:24:54;;;;;;;7.68;4.38;;;20.60;99.90;;;;;;5008852;28;20038;-64
2022/08/04 01:27:22;;;;;;;7.90;4.45;;;20.60;99.90;;;;;;5009366;28;20077;-64
2022/08/04 01:29:55;;;;;;;7.53;4.07;;;20.60;99.90;;;;;;5010316;28;20050;-65
2022/08/04 01:32:23;;;;;;;10.32;4.53;;;20.60;99.90;;;;;;5009142;28;20152;-64
2022/08/04 01:34:54;;;;;;;7.95;4.50;;;20.50;99.90;;;;;;5009883;28;20073;-64
2022/08/04 01:37:39;;;;;;;8.32;4.15;;;20.50;99.90;;;;;;5009701;28;20500;-64
2022/08/04 01:40:07;;;;;;;7.88;4.28;;;20.50;99.90;;;;;;5006368;28;20046;-66
2022/08/04 01:42:35;;;;;;;9.73;4.72;;;20.50;99.90;;;;;;5010280;28;20511;-64
2022/08/04 01:45:07;;;;;;;10.98;4.97;;;20.40;99.90;;;;;;5008561;28;20037;-64
2022/08/04 01:47:35;;;;;;;7.78;4.57;;;20.40;99.90;;;;;;5009688;28;20042;-65
2022/08/04 01:50:09;;;;;;;11.70;4.47;;;20.40;99.90;;;;;;5006678;28;20038;-64
2022/08/04 01:52:37;;;;;;;10.02;4.57;;;20.40;99.90;;;;;;5009991;28;20042;-64
2022/08/04 01:55:09;;;;;;;10.10;4.38;;;20.40;99.90;;;;;;5009049;28;20566;-65
2022/08/04 01:57:46;;;;;;;11.93;4.20;;;20.40;99.90;;;;;;5008653;28;20305;-66
2022/08/04 02:00:14;;;;;;;11.10;4.50;;;20.40;99.90;;;;;;5001426;28;20034;-64
2022/08/04 02:02:40;;;;;;;7.07;4.72;;;20.40;99.90;;;;;;4994795;28;20053;-65
2022/08/04 02:05:10;;;;;;;8.43;4.68;;;20.40;99.90;;;;;;5006296;28;20425;-64
2022/08/04 02:08:12;;;;;;;8.55;5.00;;;20.30;99.90;;;;;;5010298;28;20041;-65
2022/08/04 02:11:03;;;;;;;11.48;5.53;;;20.30;99.90;;;;;;5000756;28;20097;-64
2022/08/04 02:13:37;;;;;;;12.45;5.65;;;20.30;99.90;;;;;;4997399;28;20061;-65
2022/08/04 02:16:20;;;;;;;10.32;5.28;;;20.40;99.90;;;;;;5008218;28;20497;-65
2022/08/04 02:18:45;;;;;;;7.63;5.38;;;20.30;99.90;;;;;;5005064;28;20053;-65
2022/08/04 02:21:15;;;;;;;11.52;5.55;;;20.30;99.90;;;;;;5008272;28;20519;-65
2022/08/04 02:23:41;;;;;;;9.98;5.25;;;20.30;99.90;;;;;;5012376;28;20076;-64
2022/08/04 02:26:18;;;;;;;12.00;5.50;;;20.30;99.90;;;;;;5012049;28;20064;-65
2022/08/04 02:28:59;;;;;;;9.52;4.90;;;20.20;99.90;;;;;;5009451;28;20042;-64
2022/08/04 02:31:53;;;;;;;11.98;5.53;;;20.30;99.90;;;;;;5013501;28;20034;-64
2022/08/04 02:34:37;;;;;;;11.40;5.57;;;20.20;99.90;;;;;;5008376;28;20030;-64
2022/08/04 02:37:03;;;;;;;8.40;4.95;;;20.20;99.90;;;;;;5009178;28;20041;-64
2022/08/04 02:39:35;;;;;;;10.55;5.38;;;20.20;99.90;;;;;;5005586;28;20056;-64
2022/08/04 02:42:03;;;;;;;12.77;5.22;;;20.10;99.90;;;;;;5010921;28;20121;-65
2022/08/04 02:44:30;;;;;;;11.65;5.20;;;20.10;99.90;;;;;;5010891;28;20121;-65
2022/08/04 02:46:58;;;;;;;9.52;4.93;;;20.10;99.90;;;;;;5010615;28;20049;-65
2022/08/04 02:49:26;;;;;;;9.57;5.47;;;20.10;99.90;;;;;;5009146;28;20120;-65
2022/08/04 02:51:54;;;;;;;13.18;4.80;;;20.10;99.90;;;;;;5005936;28;20054;-65
2022/08/04 02:54:39;;;;;;;8.68;4.65;;;20.10;99.90;;;;;;5012078;28;20338;-64
2022/08/04 02:57:13;;;;;;;8.15;5.22;;;20.00;99.90;;;;;;5011630;28;20164;-64
2022/08/04 03:00:09;;;;;;;8.68;4.70;;;20.00;99.90;;;;;;5010544;28;20132;-65
2022/08/04 03:02:44;;;;;;;8.35;4.68;;;19.90;99.90;;;;;;5009160;28;20030;-67
2022/08/04 03:05:18;;;;;;;7.30;4.28;;;19.90;99.90;;;;;;5010482;28;20335;-64
2022/08/04 03:07:53;;;;;;;8.93;4.60;;;19.80;99.90;;;;;;5003480;28;20172;-66
2022/08/04 03:10:54;;;;;;;6.20;4.07;;;19.80;99.90;;;;;;5011697;28;20041;-64
2022/08/04 03:13:47;;;;;;;6.82;3.97;;;19.80;99.90;;;;;;4999466;28;20162;-64
2022/08/04 03:16:16;;;;;;;10.88;4.57;;;19.70;99.90;;;;;;5010010;28;20437;-64
2022/08/04 03:19:07;;;;;;;8.20;4.20;;;19.70;99.90;;;;;;5012114;28;20050;-64
2022/08/04 03:21:42;;;;;;;7.43;4.40;;;19.60;99.90;;;;;;5007418;28;20046;-64
2022/08/04 03:24:52;;;;;;;7.70;4.22;;;19.60;99.90;;;;;;5009876;28;20084;-64
2022/08/04 03:27:39;;;;;;;7.97;4.97;;;19.60;99.90;;;;;;4950305;28;20059;-64
2022/08/04 03:30:05;;;;;;;7.95;4.57;;;19.50;99.90;;;;;;4948551;29;20126;-66
2022/08/04 03:33:03;;;;;;;9.38;5.13;;;19.50;99.90;;;;;;4986849;28;20154;-64
2022/08/04 03:36:08;;;;;;;11.35;5.55;;;19.50;99.90;;;;;;5016921;28;20124;-66
2022/08/04 03:39:13;;;;;;;8.48;5.28;;;19.60;99.90;;;;;;4973842;28;20080;-65
2022/08/04 03:41:48;;;;;;;9.57;5.55;;;19.60;99.90;;;;;;5005257;28;20400;-64
2022/08/04 03:44:38;;;;;;;7.93;4.90;;;19.50;99.90;;;;;;5011861;28;20495;-64
2022/08/04 03:47:32;;;;;;;7.82;5.00;;;19.50;99.90;;;;;;5011149;28;20048;-65
2022/08/04 03:50:32;;;;;;;8.38;5.05;;;19.50;99.90;;;;;;5008540;28;20053;-66
2022/08/04 03:53:10;;;;;;;9.35;5.45;;;19.50;99.90;;;;;;4994290;28;20050;-64
2022/08/04 03:56:05;;;;;;;8.90;5.63;;;19.50;99.90;;;;;;5004171;28;20116;-66
2022/08/04 03:58:51;;;;;;;10.05;5.43;;;19.60;99.90;;;;;;5010285;28;20049;-65
2022/08/04 04:01:22;;;;;;;9.27;5.80;;;19.50;99.90;;;;;;5008487;28;20607;-64
2022/08/04 04:04:19;;;;;;;10.63;5.68;;;19.40;99.90;;;;;;5011606;28;20429;-64
2022/08/04 04:06:57;;;;;;;11.38;4.93;;;19.50;99.90;;;;;;5011613;28;20041;-64
2022/08/04 04:09:49;;;;;;;9.93;4.78;;;19.40;99.90;;;;;;5010313;28;20033;-64
2022/08/04 04:12:44;;;;;;;7.47;4.85;;;19.40;99.90;;;;;;5008857;28;20046;-64
2022/08/04 04:15:10;;;;;;;7.28;4.68;;;19.40;99.90;;;;;;5009420;28;20113;-64
2022/08/04 04:17:47;;;;;;;6.63;4.53;;;19.30;99.90;;;;;;5004872;28;20497;-65
2022/08/04 04:20:43;;;;;;;9.70;4.57;;;19.30;99.90;;;;;;5009020;28;20045;-64
2022/08/04 04:23:15;;;;;;;8.93;4.47;;;19.30;99.90;;;;;;5003054;28;20087;-64
2022/08/04 04:26:14;;;;;;;8.13;5.10;;;19.20;99.90;;;;;;5010350;28;20493;-65
2022/08/04 04:28:58;;;;;;;8.40;4.80;;;19.20;99.90;;;;;;5003531;28;20050;-64
2022/08/04 04:31:32;;;;;;;7.45;4.72;;;19.10;99.90;;;;;;5010089;28;20060;-64
2022/08/04 04:34:25;;;;;;;7.35;4.30;;;19.10;99.90;;;;;;5011143;28;20048;-64
2022/08/04 04:37:13;;;;;;;7.50;4.63;;;19.10;99.90;;;;;;5010045;28;20493;-64
2022/08/04 04:39:59;;;;;;;7.68;4.80;;;19.10;99.90;;;;;;5004953;28;20092;-65
2022/08/04 04:42:39;;;;;;;6.65;4.30;;;19.10;99.90;;;;;;5006438;28;20033;-64
2022/08/04 04:45:28;;;;;;;6.55;4.40;;;19.10;99.90;;;;;;5009356;28;20404;-65
2022/08/04 04:48:12;;;;;;;6.53;4.15;;;19.10;99.90;;;;;;5009037;28;20046;-64
2022/08/04 04:50:52;;;;;;;6.35;4.70;;;19.10;99.90;;;;;;5003246;28;20087;-64
2022/08/04 04:53:27;;;;;;;7.20;4.50;;;19.00;99.90;;;;;;4997414;28;20041;-64
2022/08/04 04:56:10;;;;;;;7.72;4.70;;;19.00;99.90;;;;;;5005562;28;20409;-64
2022/08/04 04:58:38;;;;;;;11.02;4.72;;;19.10;99.90;;;;;;5010415;28;20111;-64
2022/08/04 05:01:06;;;;;;;7.18;4.40;;;19.10;99.90;;;;;;5010336;28;20033;-67
2022/08/04 05:03:40;;;;;;;8.77;4.28;;;19.10;99.90;;;;;;4996081;28;20046;-64
2022/08/04 05:06:18;;;;;;;7.57;4.43;;;19.10;99.90;;;;;;5010988;28;20046;-65
2022/08/04 05:08:52;;;;;;;8.50;4.95;;;19.20;99.90;;;;;;5003776;28;20076;-65
2022/08/04 05:11:24;;;;;;;6.13;4.53;;;19.20;99.90;;;;;;5008276;28;20124;-65
2022/08/04 05:13:53;;;;;;;7.90;4.82;;;19.30;99.90;;;;;;5002645;28;20041;-65
2022/08/04 05:16:24;;;;;;;10.02;5.07;;;19.30;99.90;;;;;;5003540;28;20121;-65
2022/08/04 05:19:11;;;;;;;6.82;4.78;;;19.30;99.90;;;;;;5005545;28;20073;-65
2022/08/04 05:21:51;;;;;;;9.02;4.60;;;19.40;99.90;;;;;;5006590;28;20052;-65
2022/08/04 05:24:20;;;;;;;7.78;4.05;;;19.40;99.90;;;;;;5008527;28;20528;-65
2022/08/04 05:26:53;;;;;;;7.15;4.75;;;19.50;99.90;;;;;;5007295;28;20120;-65
2022/08/04 05:29:28;;;;;;;7.05;4.82;;;19.50;99.90;;;;;;5008866;28;20052;-65
2022/08/04 05:31:56;;;;;;;7.55;4.85;;;19.50;99.90;;;;;;5010610;28;20049;-65
2022/08/04 05:34:26;;;;;;;9.00;5.13;;;19.50;99.90;;;;;;5010200;28;20455;-65
2022/08/04 05:36:58;;;;;;;8.88;4.88;;;19.60;99.90;;;;;;5009466;28;20416;-65
2022/08/04 05:39:27;;;;;;;9.10;5.18;;;19.60;99.90;;;;;;5007243;28;20038;-65
2022/08/04 05:41:55;;;;;;;10.85;5.85;;;19.60;99.90;;;;;;5010037;28;20557;-65
2022/08/04 05:44:23;;;;;;;10.52;5.78;;;19.70;99.90;;;;;;5008604;28;20042;-65
2022/08/04 05:46:53;;;;;;;10.68;4.93;;;19.70;99.90;;;;;;5004969;28;20084;-65
2022/08/04 05:49:20;;;;;;;9.57;5.35;;;19.70;99.90;;;;;;5009765;28;20046;-65
2022/08/04 05:51:47;;;;;;;9.07;5.22;;;19.70;99.90;;;;;;5010181;28;20572;-65
2022/08/04 05:54:14;;;;;;;8.90;5.32;;;19.80;99.90;;;;;;5008899;28;20087;-65
2022/08/04 05:56:41;;;;;;;10.70;6.13;;;19.80;99.90;;;;;;5011735;28;20037;-66
2022/08/04 05:59:09;;;;;;;9.93;6.13;;;19.80;99.90;;;;;;5012719;28;20038;-65
2022/08/04 06:01:37;;;;;;;8.82;5.80;;;19.80;99.90;;;;;;5012452;28;20100;-65
2022/08/04 06:04:04;;;;;;;10.27;6.28;;;19.90;99.90;;;;;;5012005;28;20046;-65
2022/08/04 06:06:30;;;;;;;14.45;7.40;;;19.90;99.90;;;;;;5012670;28;20386;-65
2022/08/04 06:08:57;;;;;;;12.35;6.53;;;20.00;99.90;;;;;;5007603;28;20125;-64
2022/08/04 06:11:26;;;;;;;15.20;7.55;;;20.00;99.90;;;;;;5010669;28;20091;-65
2022/08/04 06:13:58;;;;;;;12.63;7.78;;;20.10;99.90;;;;;;5012914;28;20049;-65
2022/08/04 06:16:29;;;;;;;11.40;7.13;;;20.20;99.90;;;;;;5009639;28;20045;-65
2022/08/04 06:18:57;;;;;;;13.43;7.35;;;20.20;99.90;;;;;;5011315;28;20108;-65
2022/08/04 06:21:26;;;;;;;12.50;6.63;;;20.30;99.90;;;;;;5011227;28;20106;-65
2022/08/04 06:23:53;;;;;;;9.77;6.40;;;20.30;99.90;;;;;;5011592;28;20064;-65
2022/08/04 06:26:20;;;;;;;10.63;6.70;;;20.40;99.90;;;;;;5012652;28;20069;-65
2022/08/04 06:28:48;;;;;;;10.50;6.43;;;20.50;99.90;;;;;;5010072;28;20049;-65
2022/08/04 06:31:31;;;;;;;10.27;6.47;;;20.50;99.90;;;;;;5012688;28;20041;-65
2022/08/04 06:34:01;;;;;;;9.60;5.82;;;20.50;99.90;;;;;;5009192;28;20050;-64
2022/08/04 06:36:29;;;;;;;11.25;6.32;;;20.60;99.90;;;;;;5008949;28;20041;-65
2022/08/04 06:38:55;;;;;;;11.30;6.30;;;20.70;99.90;;;;;;5010568;28;20062;-65
2022/08/04 06:41:21;;;;;;;10.05;5.70;;;20.80;99.90;;;;;;5008474;28;20044;-65
2022/08/04 06:43:48;;;;;;;10.90;5.63;;;20.80;99.90;;;;;;5012649;28;20112;-65
2022/08/04 06:46:14;;;;;;;8.43;6.05;;;20.90;99.90;;;;;;5011497;28;20038;-65
2022/08/04 06:48:41;;;;;;;11.00;6.32;;;21.00;99.90;;;;;;5011767;28;20085;-65
2022/08/04 06:51:10;;;;;;;13.45;6.53;;;21.10;99.90;;;;;;5011700;28;20038;-65
2022/08/04 06:53:35;;;;;;;10.73;6.80;;;21.20;99.90;;;;;;5011453;28;20049;-65
2022/08/04 06:56:01;;;;;;;14.80;7.03;;;21.20;99.90;;;;;;5011443;28;20046;-65
2022/08/04 06:58:31;;;;;;;11.43;6.30;;;21.30;99.90;;;;;;5011255;28;20038;-65
2022/08/04 07:01:00;;;;;;;11.20;5.95;;;21.40;99.90;;;;;;5009241;28;20109;-66
2022/08/04 07:03:27;;;;;;;10.30;5.95;;;21.50;99.90;;;;;;5007757;28;20553;-65
2022/08/04 07:05:53;;;;;;;11.43;6.60;;;21.60;99.90;;;;;;5008379;28;20041;-66
2022/08/04 07:08:20;;;;;;;13.30;7.07;;;21.70;99.90;;;;;;5009233;28;20037;-66
2022/08/04 07:10:47;;;;;;;11.30;5.90;;;21.80;99.90;;;;;;5009486;28;20038;-66
2022/08/04 07:13:14;;;;;;;13.05;6.45;;;21.90;99.90;;;;;;5007918;28;20049;-65
2022/08/04 07:15:46;;;;;;;11.23;5.80;;;21.90;99.90;;;;;;5004991;28;20043;-63
2022/08/04 07:18:12;;;;;;;15.18;6.45;;;22.00;99.90;;;;;;5003990;28;20129;-63
2022/08/04 07:20:42;;;;;;;11.57;5.60;;;22.10;99.90;;;;;;5006295;28;20105;-64
2022/08/04 07:23:10;;;;;;;13.00;5.85;;;22.20;99.90;;;;;;5010360;28;20475;-64
2022/08/04 07:25:36;;;;;;;11.35;6.40;;;22.20;99.90;;;;;;5010650;28;20131;-63
2022/08/04 07:28:02;;;;;;;10.38;5.50;;;22.30;99.90;;;;;;5007646;28;20121;-63
2022/08/04 07:30:30;;;;;;;10.38;5.15;;;22.40;99.90;;;;;;5012513;28;20087;-64
2022/08/04 07:32:56;;;;;;;8.13;5.10;;;22.50;99.90;;;;;;5009883;28;20052;-63
2022/08/04 07:35:23;;;;;;;11.50;5.15;;;22.50;99.90;;;;;;5011520;28;20081;-63
2022/08/04 07:37:48;;;;;;;9.70;5.53;;;22.60;99.90;;;;;;5011841;28;20432;-63
2022/08/04 07:40:14;;;;;;;9.38;5.32;;;22.70;99.90;;;;;;5012260;28;20034;-63
2022/08/04 07:42:40;;;;;;;10.68;4.88;;;22.80;99.90;;;;;;5010764;28;20400;-63
2022/08/04 07:45:08;;;;;;;10.00;5.18;;;22.80;99.90;;;;;;5011551;28;20119;-63
2022/08/04 07:47:33;;;;;;;11.45;5.13;;;22.90;99.90;;;;;;5010921;28;20057;-63
2022/08/04 07:49:59;;;;;;;11.48;5.40;;;23.00;99.90;;;;;;5010717;28;20049;-63
2022/08/04 07:52:26;;;;;;;13.38;5.55;;;23.10;99.90;;;;;;5010795;28;20041;-63
2022/08/04 07:54:52;;;;;;;7.90;4.50;;;23.20;99.90;;;;;;5012257;28;20384;-64
2022/08/04 07:57:19;;;;;;;10.45;4.60;;;23.30;99.90;;;;;;5011415;28;20677;-64
2022/08/04 07:59:46;;;;;;;10.88;4.25;;;23.40;99.90;;;;;;5008270;28;20038;-63
2022/08/04 08:02:14;;;;;;;18.80;4.93;;;23.50;99.90;;;;;;5002841;28;20046;-64
2022/08/04 08:04:40;;;;;;;8.68;4.55;;;23.50;99.90;;;;;;5011573;28;20432;-64
2022/08/04 08:07:06;;;;;;;13.18;4.93;;;23.60;99.90;;;;;;5010081;28;20046;-64
2022/08/04 08:09:33;;;;;;;8.95;4.45;;;23.70;99.90;;;;;;5010013;28;20527;-64
2022/08/04 08:12:00;;;;;;;9.88;4.43;;;23.80;99.90;;;;;;5011450;28;20037;-64
2022/08/04 08:14:27;;;;;;;10.15;4.50;;;23.90;99.90;;;;;;5010232;28;20038;-64
2022/08/04 08:16:52;;;;;;;11.30;4.07;;;24.00;99.90;;;;;;5008649;28;20071;-64
2022/08/04 08:19:19;;;;;;;9.45;4.45;;;24.10;99.90;;;;;;5008375;28;20045;-64
2022/08/04 08:21:48;;;;;;;14.60;4.55;;;24.20;99.90;;;;;;5003688;28;20034;-64
2022/08/04 08:24:15;;;;;;;10.02;4.50;;;24.30;99.90;;;;;;5008642;28;20037;-64
2022/08/04 08:26:41;;;;;;;12.43;4.80;;;24.40;99.90;;;;;;5007014;28;20099;-64
2022/08/04 08:29:08;;;;;;;9.90;4.90;;;24.50;99.90;;;;;;5008263;28;20599;-64
2022/08/04 08:31:34;;;;;;;9.80;4.60;;;24.60;99.90;;;;;;5011144;28;20512;-64
2022/08/04 08:34:00;;;;;;;8.38;4.93;;;24.60;99.90;;;;;;5011034;28;20049;-64
2022/08/04 08:36:33;;;;;;;12.52;5.53;;;24.80;99.90;;;;;;5004657;28;20042;-64
2022/08/04 08:39:21;;;;;;;16.27;5.38;;;24.80;99.90;;;;;;5004126;28;20053;-64
2022/08/04 08:42:27;;;;;;;9.95;5.45;;;24.90;99.90;;;;;;5009202;28;20144;-64
2022/08/04 08:45:30;;;;;;;8.23;4.72;;;24.90;99.90;;;;;;4976091;28;20061;-64
2022/08/04 08:48:39;;;;;;;12.98;5.13;;;25.10;99.90;;;;;;5008976;28;20505;-64
2022/08/04 08:51:16;;;;;;;10.05;5.47;;;25.20;99.90;;;;;;5007133;28;20076;-64
2022/08/04 08:54:03;;;;;;;11.90;5.40;;;25.30;99.90;;;;;;5008770;28;20054;-64
2022/08/04 08:56:50;;;;;;;9.45;5.25;;;25.40;99.90;;;;;;5009181;28;20042;-64
2022/08/04 08:59:33;;;;;;;11.50;5.47;;;25.60;99.90;;;;;;5008937;28;20082;-64
2022/08/04 09:02:17;;;;;;;8.40;4.55;;;25.70;99.90;;;;;;5002069;28;20176;-64
2022/08/04 09:05:13;;;;;;;8.80;5.28;;;25.90;99.90;;;;;;5010925;28;20030;-63
2022/08/04 09:08:19;;;;;;;9.55;5.05;;;26.20;99.90;;;;;;5003692;28;20500;-63
2022/08/04 09:10:48;;;;;;;9.40;5.53;;;26.50;99.90;;;;;;5005783;28;20046;-63
2022/08/04 09:13:57;;;;;;;7.25;4.57;;;26.80;99.90;;;;;;5010448;28;20172;-64
2022/08/04 09:16:55;;;;;;;10.13;5.50;;;26.90;99.90;;;;;;5004915;28;20076;-63
2022/08/04 09:19:32;;;;;;;9.43;5.28;;;27.00;99.90;;;;;;4998016;28;20050;-63
2022/08/04 09:22:07;;;;;;;8.48;4.50;;;27.20;99.90;;;;;;4998467;28;20088;-63
2022/08/04 09:24:57;;;;;;;9.35;5.18;;;27.30;99.90;;;;;;5003989;28;20077;-63
2022/08/04 09:27:48;;;;;;;10.93;4.72;;;27.30;99.90;;;;;;5007996;28;20447;-64
2022/08/04 09:30:18;;;;;;;8.07;4.45;;;27.30;99.90;;;;;;5008649;28;20046;-64
2022/08/04 09:33:09;;;;;;;10.33;5.30;;;27.30;99.90;;;;;;5001057;28;20046;-64
2022/08/04 09:35:56;;;;;;;7.03;4.40;;;27.30;99.90;;;;;;5002820;28;20356;-64
2022/08/04 09:39:09;;;;;;;7.88;4.50;;;27.50;99.90;;;;;;5009965;28;20391;-64
2022/08/04 09:42:11;;;;;;;8.13;4.35;;;27.70;99.90;;;;;;4949570;29;20047;-64
2022/08/04 09:44:59;;;;;;;7.80;4.28;;;27.90;99.90;;;;;;4926914;29;20051;-63
2022/08/04 09:47:48;;;;;;;7.45;4.28;;;28.00;99.90;;;;;;4989471;28;20185;-64
2022/08/04 09:50:37;;;;;;;6.45;3.95;;;27.90;99.90;;;;;;5008330;28;20045;-64
2022/08/04 09:53:17;;;;;;;7.63;3.80;;;27.80;99.90;;;;;;5008811;28;20460;-64
2022/08/04 09:55:55;;;;;;;7.75;3.40;;;27.60;99.90;;;;;;4992686;28;20054;-64
2022/08/04 09:58:33;;;;;;;8.60;3.35;;;27.50;99.90;;;;;;5008056;28;20060;-64
2022/08/04 10:01:03;;;;;;;6.20;2.60;;;27.40;99.90;;;;;;5009949;28;20120;-63
2022/08/04 10:03:34;;;;;;;4.95;2.47;;;27.40;99.90;;;;;;5004017;28;20030;-64
2022/08/04 10:06:06;;;;;;;5.30;2.72;;;27.40;99.90;;;;;;5005456;28;20042;-63
2022/08/04 10:09:06;;;;;;;5.15;2.47;;;27.40;99.90;;;;;;5001122;28;20075;-63
2022/08/04 10:11:39;;;;;;;5.43;2.90;;;27.40;99.90;;;;;;5006377;28;20508;-64
2022/08/04 10:14:12;;;;;;;5.32;2.60;;;27.40;99.90;;;;;;5008694;28;20096;-64
2022/08/04 10:17:14;;;;;;;4.07;2.17;;;27.50;99.90;;;;;;5008990;28;20485;-64
2022/08/04 10:19:40;;;;;;;4.03;2.22;;;27.60;99.90;;;;;;4954424;28;20054;-64
2022/08/04 10:22:32;;;;;;;5.22;2.55;;;27.70;99.90;;;;;;5008696;28;20129;-64
2022/08/04 10:25:16;;;;;;;4.90;2.58;;;27.70;99.90;;;;;;5007221;28;21730;-64
2022/08/04 10:27:53;;;;;;;6.38;2.85;;;27.60;99.90;;;;;;4999541;28;20081;-64
2022/08/04 10:30:20;;;;;;;7.47;2.53;;;27.60;99.90;;;;;;5009714;28;20046;-63
2022/08/04 10:32:48;;;;;;;7.18;2.20;;;27.60;99.90;;;;;;5008160;28;20042;-64
2022/08/04 10:35:20;;;;;;;5.88;2.20;;;27.70;99.90;;;;;;5008408;28;20129;-64
2022/08/04 10:38:04;;;;;;;6.40;2.17;;;27.80;99.90;;;;;;5008019;28;20046;-64
2022/08/04 10:40:44;;;;;;;7.97;2.03;;;27.80;99.60;;;;;;5003069;28;20436;-64
2022/08/04 10:43:34;;;;;;;6.72;2.05;;;27.80;99.10;;;;;;5010852;28;20080;-64
2022/08/04 10:46:11;;;;;;;8.13;1.98;;;27.90;98.50;;;;;;5012715;28;20044;-64
2022/08/04 10:48:50;;;;;;;5.35;2.22;;;27.90;98.60;;;;;;5011973;28;20053;-64
2022/08/04 10:51:46;;;;;;;7.47;2.35;;;27.90;98.50;;;;;;5001208;28;20045;-64
2022/08/04 10:54:24;;;;;;;9.27;2.15;;;27.90;97.70;;;;;;5010415;28;20054;-63
2022/08/04 10:56:55;;;;;;;9.90;3.00;;;27.80;98.10;;;;;;5011741;28;20552;-63
2022/08/04 10:59:27;;;;;;;;;;;27.80;98.60;;;;;;5008978;28;20076;-64
2022/08/04 11:02:01;;;;;;;7.65;2.25;;;28.00;98.70;;;;;;5012476;28;20418;-64
2022/08/04 11:04:47;;;;;;;6.35;2.40;;;28.20;98.80;;;;;;5005578;28;20037;-64
2022/08/04 11:07:15;;;;;;;6.10;2.20;;;28.40;98.20;;;;;;5012775;28;20124;-64
2022/08/04 11:09:43;;;;;;;6.97;2.28;;;28.50;98.40;;;;;;5008744;28;20386;-64
2022/08/04 11:12:20;;;;;;;7.60;2.38;;;28.60;98.00;;;;;;5005913;28;20049;-63
2022/08/04 11:14:54;;;;;;;4.60;2.33;;;28.50;97.40;;;;;;4995489;28;20470;-65
2022/08/04 11:17:25;;;;;;;5.75;2.20;;;28.50;97.60;;;;;;4995093;28;20141;-64
2022/08/04 11:20:06;;;;;;;7.22;2.20;;;28.30;97.50;;;;;;5011535;28;20052;-63
2022/08/04 11:22:37;;;;;;;1.90;1.60;;;28.20;97.10;;;;;;5005835;28;20121;-66
2022/08/04 11:25:04;;;;;;;3.28;1.60;;;28.20;97.70;;;;;;5012358;28;20033;-63
2022/08/04 11:27:44;;;;;;;3.83;1.50;;;28.20;97.80;;;;;;5010956;28;20065;-63
2022/08/04 11:30:12;;;;;;;4.38;1.92;;;28.30;97.50;;;;;;5005240;28;20038;-64
2022/08/04 11:33:06;;;;;;;3.88;1.65;;;28.30;97.70;;;;;;5009963;28;20068;-65
2022/08/04 11:35:45;;;;;;;4.65;1.65;;;28.20;96.80;;;;;;5008831;28;20085;-64
2022/08/04 11:38:35;;;;;;;3.03;1.77;;;28.00;97.10;;;;;;5006379;28;20401;-63
2022/08/04 11:41:12;;;;;;;2.83;1.70;;;27.90;96.90;;;;;;5009400;28;20516;-63
2022/08/04 11:43:47;;;;;;;4.13;1.50;;;27.60;97.10;;;;;;4992148;28;20042;-63
2022/08/04 11:46:22;;;;;;;1.98;1.30;;;27.50;97.40;;;;;;4989055;28;20038;-63
2022/08/04 11:49:06;;;;;;;5.38;1.50;;;27.30;97.20;;;;;;5009400;28;20034;-64
2022/08/04 11:51:33;;;;;;;2.67;1.60;;;27.10;96.40;;;;;;5010528;28;20088;-64
2022/08/04 11:54:00;;;;;;;2.53;1.70;;;26.90;96.50;;;;;;5011208;28;20408;-65
2022/08/04 11:56:26;;;;;;;4.32;1.67;;;26.70;96.50;;;;;;5001378;28;20041;-64
2022/08/04 11:58:52;;;;;;;4.13;1.52;;;26.60;96.50;;;;;;4996510;28;20099;-64
2022/08/04 12:01:26;;;;;;;2.50;1.42;;;26.50;96.70;;;;;;5006045;28;20042;-64
2022/08/04 12:04:17;;;;;;;3.13;1.50;;;26.40;96.90;;;;;;5002233;28;20060;-64
2022/08/04 12:06:57;;;;;;;2.00;1.60;;;26.30;96.90;;;;;;5005521;28;20445;-64
2022/08/04 12:09:47;;;;;;;2.85;1.58;;;26.20;96.80;;;;;;5008459;28;20108;-64
2022/08/04 12:12:28;;;;;;;6.35;1.42;;;26.00;96.60;;;;;;5007014;28;20044;-64
2022/08/04 12:15:12;;;;;;;3.88;1.70;;;25.90;96.80;;;;;;4989550;28;20552;-64
2022/08/04 12:17:56;;;;;;;3.38;1.70;;;25.80;97.00;;;;;;5022822;28;20050;-64
2022/08/04 12:20:26;;;;;;;2.33;1.45;;;25.70;96.90;;;;;;5007800;28;20045;-64
2022/08/04 12:22:54;;;;;;;4.93;1.60;;;25.60;97.30;;;;;;5009579;28;20033;-64
2022/08/04 12:25:33;;;;;;;2.88;1.50;;;25.50;97.30;;;;;;5009059;28;20041;-64
2022/08/04 12:28:11;;;;;;;3.83;1.30;;;25.30;97.70;;;;;;4993700;28;20490;-67
2022/08/04 12:30:44;;;;;;;3.33;1.60;;;25.20;98.00;;;;;;5004866;28;20073;-64
2022/08/04 12:33:18;;;;;;;2.47;1.48;;;25.10;98.30;;;;;;5008873;28;20045;-64
2022/08/04 12:36:11;;;;;;;3.13;1.40;;;25.00;98.50;;;;;;5022846;28;20118;-64
2022/08/04 12:38:47;;;;;;;1.33;1.20;;;25.00;99.00;;;;;;5004723;28;20559;-64
2022/08/04 12:41:20;;;;;;;2.92;1.48;;;25.00;98.90;;;;;;5004741;28;20120;-64
2022/08/04 12:43:46;;;;;;;3.30;1.13;;;25.10;99.00;;;;;;4995727;28;20400;-64
2022/08/04 12:46:32;;;;;;;2.15;1.50;;;25.20;99.20;;;;;;5004605;28;20038;-64
2022/08/04 12:49:02;;;;;;;2.10;1.17;;;25.30;99.50;;;;;;5001847;28;20061;-61
2022/08/04 12:51:36;;;;;;;2.28;1.20;;;25.40;99.20;;;;;;5006544;28;20037;-66
2022/08/04 12:54:04;;;;;;;2.30;1.40;;;25.60;99.20;;;;;;5006107;28;20045;-64
2022/08/04 12:56:31;;;;;;;1.70;1.20;;;25.90;99.00;;;;;;5002430;28;20089;-64
2022/08/04 12:59:03;;;;;;;3.47;1.42;;;26.10;99.00;;;;;;5008109;28;20077;-66
2022/08/04 13:01:30;;;;;;;2.35;1.40;;;26.40;98.40;;;;;;5006619;28;20038;-64
2022/08/04 13:04:00;;;;;;;3.72;1.63;;;26.70;98.00;;;;;;5000039;28;20140;-65
2022/08/04 13:06:33;;;;;;;1.53;1.20;;;27.00;97.30;;;;;;5005531;28;20026;-64
2022/08/04 13:09:13;;;;;;;2.20;1.30;;;27.30;96.60;;;;;;5006501;28;20292;-64
2022/08/04 13:11:47;;;;;;;1.10;1.00;;;27.40;95.80;;;;;;5002948;28;20712;-64
2022/08/04 13:14:14;;;;;;;1.95;1.20;;;27.50;95.20;;;;;;5003179;28;20042;-66
2022/08/04 13:16:40;;;;;;;1.48;1.10;;;27.60;95.10;;;;;;5000663;28;20035;-64
2022/08/04 13:19:08;;;;;;;1.63;1.20;;;27.60;94.80;;;;;;5002557;28;20112;-64
2022/08/04 13:21:38;;;;;;;3.45;1.15;;;27.70;94.40;;;;;;5006062;28;20064;-64
2022/08/04 13:24:09;;;;;;;3.10;1.17;;;27.80;94.30;;;;;;5003340;28;20038;-64
2022/08/04 13:26:37;;;;;;;2.38;1.20;;;27.90;93.90;;;;;;5005196;28;20042;-64
2022/08/04 13:29:06;;;;;;;2.47;1.45;;;28.00;93.80;;;;;;4998777;28;20158;-64